Time;durP1;ratioP1;P1;durP2;ratioP2;P2;SDS_P1;SDS_P2;PMS_P1;PMS_P2;Temp;Humidity;BMP_temperature;BMP_pressure;BME280_temperature;BME280_humidity;BME280_pressure;Samples;Min_cycle;Max_cycle;Signal;HPM_P1;HPM_P2
2023/07/28 00:00:25;;;;;;;7.80;5.73;;;18.60;1.00;;;;;;4991435;28;20195;-74
2023/07/28 00:02:51;;;;;;;11.70;6.33;;;18.50;1.00;;;;;;4991896;28;20211;-75
2023/07/28 00:05:16;;;;;;;11.40;6.67;;;18.50;1.00;;;;;;4991721;28;20258;-75
2023/07/28 00:07:42;;;;;;;8.93;6.40;;;18.50;1.00;;;;;;4990110;28;20215;-75
2023/07/28 00:10:08;;;;;;;9.23;6.60;;;18.60;1.00;;;;;;4990664;28;20472;-74
2023/07/28 00:12:34;;;;;;;10.23;6.87;;;18.60;1.00;;;;;;4991896;28;20574;-74
2023/07/28 00:14:59;;;;;;;11.43;6.70;;;18.60;2.00;;;;;;4990227;28;20199;-74
2023/07/28 00:17:25;;;;;;;14.00;7.23;;;18.70;5.40;;;;;;4991227;28;20465;-74
2023/07/28 00:19:51;;;;;;;12.60;6.73;;;18.70;5.70;;;;;;4993764;28;20190;-75
2023/07/28 00:22:16;;;;;;;10.20;6.50;;;18.80;7.50;;;;;;4991379;28;20227;-74
2023/07/28 00:24:42;;;;;;;13.73;7.03;;;18.80;7.30;;;;;;4991636;28;20488;-74
2023/07/28 00:27:07;;;;;;;10.93;7.07;;;18.80;8.50;;;;;;4990847;28;20203;-74
2023/07/28 00:29:33;;;;;;;11.93;6.33;;;18.90;8.30;;;;;;4991219;28;20238;-76
2023/07/28 00:31:58;;;;;;;7.60;5.80;;;18.80;6.60;;;;;;4991464;28;20269;-74
2023/07/28 00:34:24;;;;;;;8.80;6.20;;;18.70;3.80;;;;;;4991206;28;20592;-75
2023/07/28 00:36:49;;;;;;;17.30;7.07;;;18.70;6.80;;;;;;4991301;28;20212;-74
2023/07/28 00:39:15;;;;;;;11.70;6.33;;;18.60;8.30;;;;;;4990972;28;20183;-74
2023/07/28 00:41:40;;;;;;;11.57;5.03;;;18.60;11.00;;;;;;4991417;28;20218;-74
2023/07/28 00:44:06;;;;;;;11.73;6.23;;;18.60;8.90;;;;;;4988466;28;20225;-72
2023/07/28 00:46:31;;;;;;;18.00;6.83;;;18.60;7.70;;;;;;4990841;28;20673;-74
2023/07/28 00:48:57;;;;;;;10.47;5.90;;;18.60;10.20;;;;;;4990716;28;20172;-76
2023/07/28 00:51:23;;;;;;;10.63;6.03;;;18.60;10.30;;;;;;4993995;28;20186;-74
2023/07/28 00:53:55;;;;;;;10.60;6.40;;;18.50;13.10;;;;;;4989355;28;20185;-75
2023/07/28 00:56:22;;;;;;;9.90;7.00;;;18.50;13.30;;;;;;4988885;28;20323;-74
2023/07/28 00:58:48;;;;;;;7.30;5.60;;;18.60;15.60;;;;;;4991169;28;20422;-73
2023/07/28 01:01:13;;;;;;;9.90;6.37;;;18.60;16.20;;;;;;4988890;28;20472;-72
2023/07/28 01:03:39;;;;;;;9.57;7.23;;;18.60;18.40;;;;;;4990448;28;20422;-74
2023/07/28 01:06:14;;;;;;;7.90;5.87;;;18.70;15.50;;;;;;4990716;28;20692;-74
2023/07/28 01:09:04;;;;;;;10.30;7.20;;;18.70;18.90;;;;;;4988072;28;20203;-76
2023/07/28 01:11:29;;;;;;;10.90;7.33;;;18.70;20.50;;;;;;4990629;28;20454;-74
2023/07/28 01:13:55;;;;;;;7.70;6.20;;;18.70;20.90;;;;;;4990591;28;20426;-77
2023/07/28 01:16:21;;;;;;;8.77;6.60;;;18.80;22.90;;;;;;4989773;28;20218;-73
2023/07/28 01:18:46;;;;;;;11.97;6.80;;;18.80;22.60;;;;;;4990093;28;20187;-74
2023/07/28 01:21:20;;;;;;;9.70;6.90;;;18.70;21.10;;;;;;4992264;28;20211;-76
2023/07/28 01:24:15;;;;;;;11.90;6.93;;;18.70;22.90;;;;;;4989711;28;20187;-77
2023/07/28 01:26:41;;;;;;;11.67;6.60;;;18.70;23.70;;;;;;4983073;28;20485;-74
2023/07/28 01:29:07;;;;;;;9.47;6.57;;;18.80;27.30;;;;;;4990020;28;20418;-73
2023/07/28 01:31:33;;;;;;;13.77;6.73;;;18.80;26.90;;;;;;4989684;28;20415;-76
2023/07/28 01:33:59;;;;;;;11.53;5.90;;;18.80;28.50;;;;;;4990245;28;20472;-75
2023/07/28 01:36:25;;;;;;;8.57;6.07;;;18.80;30.20;;;;;;4988089;28;20740;-75
2023/07/28 01:38:50;;;;;;;11.40;6.53;;;18.80;28.70;;;;;;4990116;28;20266;-76
2023/07/28 01:41:16;;;;;;;11.73;7.70;;;18.80;27.80;;;;;;4989878;28;20900;-75
2023/07/28 01:43:42;;;;;;;11.20;6.87;;;18.80;31.50;;;;;;4990224;28;20177;-74
2023/07/28 01:46:07;;;;;;;10.80;7.17;;;18.70;26.60;;;;;;4988433;28;20172;-74
2023/07/28 01:48:33;;;;;;;11.70;6.90;;;18.70;29.90;;;;;;4989591;28;20183;-74
2023/07/28 01:50:59;;;;;;;12.80;6.60;;;18.70;30.30;;;;;;4994169;28;20194;-74
2023/07/28 01:53:24;;;;;;;11.30;6.87;;;21.40;31.90;;;;;;4987956;28;20211;-74
2023/07/28 01:55:50;;;;;;;11.57;7.17;;;18.70;37.90;;;;;;4988218;28;20727;-74
2023/07/28 01:58:15;;;;;;;12.53;6.83;;;18.70;31.90;;;;;;4988349;28;20214;-75
2023/07/28 02:00:41;;;;;;;11.23;6.70;;;18.70;34.80;;;;;;4987952;28;20199;-74
2023/07/28 02:03:07;;;;;;;8.50;6.87;;;18.70;32.80;;;;;;4987992;28;20641;-74
2023/07/28 02:05:32;;;;;;;8.13;6.60;;;18.60;35.20;;;;;;4988813;28;20262;-75
2023/07/28 02:07:58;;;;;;;11.10;6.80;;;18.60;33.80;;;;;;4984397;28;20560;-75
2023/07/28 02:10:26;;;;;;;7.73;6.10;;;18.60;37.50;;;;;;4987926;28;20194;-73
2023/07/28 02:12:51;;;;;;;9.53;6.30;;;18.60;40.10;;;;;;4985851;28;20183;-75
2023/07/28 02:15:17;;;;;;;8.20;6.10;;;18.60;45.10;;;;;;4992854;28;20453;-76
2023/07/28 02:17:43;;;;;;;13.60;6.97;;;18.60;45.10;;;;;;4988881;28;20203;-75
2023/07/28 02:20:12;;;;;;;10.40;6.70;;;18.60;45.20;;;;;;4988135;28;20197;-76
2023/07/28 02:22:42;;;;;;;12.17;7.23;;;18.70;45.30;;;;;;4988351;28;20185;-74
2023/07/28 02:25:08;;;;;;;11.83;6.90;;;18.70;45.20;;;;;;4989265;28;20524;-76
2023/07/28 02:27:34;;;;;;;8.97;6.30;;;18.70;45.40;;;;;;4988589;28;20489;-76
2023/07/28 02:29:59;;;;;;;12.00;7.40;;;18.80;45.50;;;;;;4988128;28;20434;-74
2023/07/28 02:32:26;;;;;;;10.23;7.00;;;18.70;45.30;;;;;;4987677;28;20238;-74
2023/07/28 02:34:52;;;;;;;9.93;7.40;;;18.70;45.20;;;;;;4991913;28;20312;-75
2023/07/28 02:37:17;;;;;;;12.13;7.00;;;18.60;45.10;;;;;;4991867;28;20450;-76
2023/07/28 02:39:43;;;;;;;9.20;7.00;;;18.80;45.40;;;;;;4993392;28;20226;-75
2023/07/28 02:42:09;;;;;;;7.90;6.17;;;18.60;45.20;;;;;;4990663;28;20249;-73
2023/07/28 02:44:34;;;;;;;7.57;5.63;;;18.60;45.30;;;;;;4991458;28;20183;-74
2023/07/28 02:47:00;;;;;;;8.43;6.13;;;18.60;47.80;;;;;;4991219;28;20210;-75
2023/07/28 02:49:25;;;;;;;7.00;5.87;;;18.60;45.30;;;;;;4992410;28;20266;-74
2023/07/28 02:51:51;;;;;;;11.70;6.50;;;18.60;45.20;;;;;;4992818;28;20187;-74
2023/07/28 02:54:16;;;;;;;8.50;6.10;;;18.60;45.20;;;;;;4991403;28;20664;-76
2023/07/28 02:56:42;;;;;;;8.10;5.60;;;18.60;45.10;;;;;;4991553;28;20211;-78
2023/07/28 02:59:07;;;;;;;7.30;6.20;;;18.60;45.20;;;;;;4992451;28;20649;-74
2023/07/28 03:01:33;;;;;;;12.23;6.53;;;18.60;45.30;;;;;;4992850;28;20236;-74
2023/07/28 03:04:02;;;;;;;7.90;5.67;;;18.60;45.10;;;;;;4991254;28;20232;-75
2023/07/28 03:06:28;;;;;;;6.20;5.60;;;18.60;45.10;;;;;;4990178;28;20306;-73
2023/07/28 03:08:54;;;;;;;9.43;6.27;;;20.00;46.40;;;;;;4991064;28;20594;-75
2023/07/28 03:11:20;;;;;;;7.63;5.80;;;18.60;45.20;;;;;;4991762;28;20198;-74
2023/07/28 03:13:47;;;;;;;11.03;5.80;;;18.60;45.20;;;;;;4991275;28;20533;-76
2023/07/28 03:16:12;;;;;;;7.23;5.33;;;18.60;45.10;;;;;;4991499;28;20458;-73
2023/07/28 03:18:38;;;;;;;11.90;6.03;;;18.50;45.00;;;;;;4991157;28;20187;-75
2023/07/28 03:21:03;;;;;;;6.77;6.00;;;18.50;45.10;;;;;;4991961;28;20226;-75
2023/07/28 03:23:29;;;;;;;10.17;6.40;;;18.50;45.00;;;;;;4992015;28;20729;-76
2023/07/28 03:25:54;;;;;;;10.60;6.30;;;18.40;42.80;;;;;;4992396;28;20180;-74
2023/07/28 03:28:20;;;;;;;7.30;5.97;;;18.40;45.00;;;;;;4989826;28;20180;-73
2023/07/28 03:30:46;;;;;;;9.20;6.90;;;18.40;45.20;;;;;;4992058;28;20266;-75
2023/07/28 03:33:11;;;;;;;16.13;6.23;;;18.40;45.00;;;;;;4992288;28;20624;-76
2023/07/28 03:35:37;;;;;;;9.80;6.80;;;18.30;44.90;;;;;;4991096;28;20187;-74
2023/07/28 03:38:02;;;;;;;17.93;7.73;;;18.50;45.30;;;;;;4991896;28;20214;-75
2023/07/28 03:40:28;;;;;;;10.00;7.60;;;18.50;48.50;;;;;;4991168;28;20712;-76
2023/07/28 03:42:55;;;;;;;9.73;6.90;;;18.50;45.10;;;;;;4989712;28;20182;-74
2023/07/28 03:45:20;;;;;;;13.23;7.50;;;18.50;45.10;;;;;;4989978;28;20183;-76
2023/07/28 03:47:46;;;;;;;8.73;6.70;;;18.50;45.30;;;;;;4989453;28;20461;-74
2023/07/28 03:50:11;;;;;;;7.77;6.60;;;18.50;45.90;;;;;;4991961;28;20603;-73
2023/07/28 03:52:37;;;;;;;7.83;6.50;;;18.40;45.10;;;;;;4991601;28;20178;-75
2023/07/28 03:55:03;;;;;;;9.30;7.13;;;18.40;45.20;;;;;;4991990;28;20550;-75
2023/07/28 03:57:28;;;;;;;11.20;6.53;;;18.40;45.00;;;;;;4990451;28;20238;-77
2023/07/28 03:59:54;;;;;;;13.40;7.40;;;18.40;45.30;;;;;;4991620;28;20482;-75
2023/07/28 04:02:19;;;;;;;9.60;7.00;;;18.40;50.30;;;;;;4991685;28;20702;-75
2023/07/28 04:04:45;;;;;;;8.67;6.43;;;18.40;50.50;;;;;;4991025;28;20186;-75
2023/07/28 04:07:10;;;;;;;10.87;7.27;;;18.30;47.90;;;;;;4989762;28;20251;-76
2023/07/28 04:09:36;;;;;;;13.10;7.17;;;18.30;52.80;;;;;;4990292;28;20561;-74
2023/07/28 04:12:01;;;;;;;9.60;7.30;;;18.40;56.20;;;;;;4991096;28;20315;-75
2023/07/28 04:14:27;;;;;;;8.90;6.87;;;18.40;55.90;;;;;;4988682;28;20218;-73
2023/07/28 04:16:52;;;;;;;16.33;8.07;;;18.30;54.70;;;;;;4996192;28;20226;-75
2023/07/28 04:19:18;;;;;;;12.57;8.40;;;18.40;53.80;;;;;;4991369;28;20553;-74
2023/07/28 04:21:43;;;;;;;11.00;7.60;;;18.40;57.80;;;;;;4990945;28;20203;-74
2023/07/28 04:24:09;;;;;;;12.07;7.63;;;18.40;53.80;;;;;;4991244;28;20206;-74
2023/07/28 04:26:35;;;;;;;14.43;8.03;;;18.30;54.40;;;;;;4989957;28;20209;-75
2023/07/28 04:29:01;;;;;;;13.63;7.70;;;18.40;56.70;;;;;;4989541;28;20793;-75
2023/07/28 04:31:27;;;;;;;14.23;7.67;;;18.40;57.20;;;;;;4990959;28;20361;-78
2023/07/28 04:33:52;;;;;;;11.30;7.43;;;18.40;58.80;;;;;;4985926;28;20182;-76
2023/07/28 04:36:18;;;;;;;7.87;5.80;;;18.40;58.30;;;;;;4989591;28;20210;-74
2023/07/28 04:38:43;;;;;;;9.13;6.33;;;18.40;53.60;;;;;;4990374;28;20183;-74
2023/07/28 04:41:09;;;;;;;9.80;5.17;;;18.30;57.90;;;;;;4990198;28;20673;-76
2023/07/28 04:43:34;;;;;;;8.93;5.87;;;18.30;52.80;;;;;;4989688;28;20191;-75
2023/07/28 04:46:00;;;;;;;8.17;5.50;;;18.30;54.80;;;;;;4990349;28;20217;-74
2023/07/28 04:48:26;;;;;;;8.33;5.43;;;18.30;57.70;;;;;;4990367;28;20199;-76
2023/07/28 04:50:51;;;;;;;7.80;5.10;;;18.40;63.00;;;;;;4990076;28;20225;-75
2023/07/28 04:53:17;;;;;;;8.80;5.90;;;18.50;65.50;;;;;;4990500;28;20434;-78
2023/07/28 04:55:42;;;;;;;8.90;5.40;;;18.60;64.90;;;;;;4988607;28;20318;-79
2023/07/28 04:58:08;;;;;;;8.87;5.43;;;18.50;60.40;;;;;;4988481;28;20621;-74
2023/07/28 05:00:33;;;;;;;5.57;4.60;;;18.50;63.10;;;;;;4989709;28;20219;-77
2023/07/28 05:02:59;;;;;;;8.67;5.20;;;18.70;58.10;;;;;;4989759;28;20178;-75
2023/07/28 05:05:24;;;;;;;8.10;5.03;;;18.40;53.60;;;;;;4990786;28;20719;-73
2023/07/28 05:07:50;;;;;;;6.43;4.90;;;18.40;55.90;;;;;;4989025;28;20227;-76
2023/07/28 05:10:16;;;;;;;6.67;4.00;;;18.40;53.70;;;;;;4988608;28;20171;-75
2023/07/28 05:12:41;;;;;;;5.60;4.10;;;18.50;58.90;;;;;;4988361;28;20458;-77
2023/07/28 05:15:10;;;;;;;8.60;4.93;;;18.40;53.10;;;;;;4986262;28;20190;-74
2023/07/28 05:17:36;;;;;;;6.53;4.43;;;18.30;45.00;;;;;;4986706;28;20227;-75
2023/07/28 05:20:02;;;;;;;6.77;4.90;;;18.30;45.10;;;;;;4991797;28;20411;-74
2023/07/28 05:22:28;;;;;;;4.90;3.83;;;18.20;45.00;;;;;;4988933;28;20457;-74
2023/07/28 05:24:53;;;;;;;4.70;3.50;;;18.20;48.10;;;;;;4988779;28;20441;-77
2023/07/28 05:27:19;;;;;;;3.80;3.30;;;18.30;50.50;;;;;;4988950;28;20207;-77
2023/07/28 05:29:44;;;;;;;6.70;4.17;;;18.30;53.80;;;;;;4988127;28;20198;-73
2023/07/28 05:32:10;;;;;;;4.20;3.40;;;18.40;57.40;;;;;;4988847;28;20253;-74
2023/07/28 05:34:35;;;;;;;5.13;3.50;;;18.40;53.90;;;;;;4987740;28;20250;-74
2023/07/28 05:37:01;;;;;;;7.13;3.53;;;18.40;53.10;;;;;;4988294;28;20191;-76
2023/07/28 05:39:26;;;;;;;6.20;3.70;;;18.40;55.20;;;;;;4989521;28;20179;-74
2023/07/28 05:41:52;;;;;;;12.53;3.30;;;18.50;54.30;;;;;;4989113;28;20203;-74
2023/07/28 05:44:17;;;;;;;5.90;3.37;;;18.50;49.20;;;;;;4986339;28;20182;-76
2023/07/28 05:46:44;;;;;;;7.10;3.70;;;18.40;51.00;;;;;;4988673;28;20233;-75
2023/07/28 05:49:09;;;;;;;4.63;3.50;;;18.30;45.00;;;;;;4988985;28;20226;-77
2023/07/28 05:51:35;;;;;;;6.70;4.13;;;18.30;45.30;;;;;;4987766;28;20446;-73
2023/07/28 05:54:00;;;;;;;9.27;4.33;;;18.20;45.10;;;;;;4987475;28;20183;-75
2023/07/28 05:56:26;;;;;;;9.73;5.10;;;18.20;55.30;;;;;;4988478;28;20712;-75
2023/07/28 05:58:52;;;;;;;7.50;4.23;;;18.30;58.90;;;;;;4988904;28;20198;-74
2023/07/28 06:01:18;;;;;;;7.10;4.80;;;18.30;52.00;;;;;;4988020;28;20302;-73
2023/07/28 06:03:44;;;;;;;9.07;4.87;;;18.30;55.80;;;;;;4991140;28;20638;-73
2023/07/28 06:06:09;;;;;;;8.40;4.90;;;18.40;60.10;;;;;;4984925;28;20453;-75
2023/07/28 06:08:35;;;;;;;8.10;5.73;;;18.40;62.80;;;;;;4991456;28;20244;-73
2023/07/28 06:11:05;;;;;;;6.53;5.13;;;18.40;61.50;;;;;;4993050;28;20216;-73
2023/07/28 06:13:31;;;;;;;8.23;5.53;;;18.50;63.20;;;;;;4993307;28;20523;-74
2023/07/28 06:15:58;;;;;;;9.77;6.30;;;18.50;54.90;;;;;;5003620;28;20942;-73
2023/07/28 06:18:23;;;;;;;7.50;6.03;;;18.50;57.80;;;;;;4993166;28;20167;-75
2023/07/28 06:20:49;;;;;;;9.77;5.93;;;18.60;60.50;;;;;;4994173;28;20512;-78
2023/07/28 06:23:15;;;;;;;11.07;6.63;;;18.60;57.10;;;;;;4992977;28;20289;-73
2023/07/28 06:25:43;;;;;;;6.67;5.47;;;18.60;53.30;;;;;;4999977;28;20186;-73
2023/07/28 06:28:10;;;;;;;8.53;6.07;;;18.60;47.30;;;;;;4996456;28;20198;-73
2023/07/28 06:30:36;;;;;;;8.10;6.47;;;18.60;45.40;;;;;;4996362;28;20441;-72
2023/07/28 06:33:03;;;;;;;12.32;6.38;;;18.70;55.80;;;;;;4990942;28;20922;-72
2023/07/28 06:35:28;;;;;;;11.30;6.00;;;18.70;45.30;;;;;;4995224;28;20199;-72
2023/07/28 06:37:54;;;;;;;11.67;6.13;;;18.70;45.40;;;;;;4993769;28;20457;-74
2023/07/28 06:40:20;;;;;;;7.13;5.93;;;18.60;45.20;;;;;;4993885;28;20183;-71
2023/07/28 06:42:46;;;;;;;8.23;6.10;;;18.60;45.30;;;;;;4994035;28;20269;-71
2023/07/28 06:45:12;;;;;;;7.37;5.90;;;18.70;45.40;;;;;;4993904;28;20445;-71
2023/07/28 06:47:38;;;;;;;7.23;5.47;;;18.80;51.30;;;;;;4991744;28;20453;-71
2023/07/28 06:50:05;;;;;;;8.40;5.60;;;18.90;45.50;;;;;;4993588;28;20433;-71
2023/07/28 06:52:30;;;;;;;6.40;4.90;;;18.90;45.50;;;;;;4993343;28;20589;-72
2023/07/28 06:54:56;;;;;;;6.63;4.80;;;18.90;45.60;;;;;;4994279;28;20442;-74
2023/07/28 06:57:22;;;;;;;7.33;4.93;;;18.90;45.70;;;;;;4996448;28;20203;-74
2023/07/28 06:59:48;;;;;;;6.33;4.57;;;;;;;;;;4991217;28;20187;-75
2023/07/28 07:02:14;;;;;;;6.80;4.80;;;19.00;43.40;;;;;;4993714;28;20217;-74
2023/07/28 07:04:39;;;;;;;5.83;4.30;;;19.00;45.50;;;;;;4993911;28;20522;-75
2023/07/28 07:07:05;;;;;;;6.57;4.40;;;19.00;45.50;;;;;;4991320;28;20203;-76
2023/07/28 07:09:30;;;;;;;5.67;4.43;;;19.00;45.40;;;;;;4997116;28;20179;-73
2023/07/28 07:11:56;;;;;;;5.90;4.63;;;19.00;45.60;;;;;;4998263;28;20210;-76
2023/07/28 07:14:22;;;;;;;5.27;4.33;;;19.10;45.50;;;;;;4996560;28;20184;-75
2023/07/28 07:16:49;;;;;;;6.90;4.30;;;19.10;45.20;;;;;;4997331;28;20222;-77
2023/07/28 07:19:15;;;;;;;5.00;4.23;;;19.10;40.30;;;;;;4999337;28;20194;-77
2023/07/28 07:21:41;;;;;;;4.90;3.77;;;19.20;37.90;;;;;;5001384;28;20469;-75
2023/07/28 07:24:07;;;;;;;5.27;4.17;;;19.20;42.80;;;;;;4997207;28;20426;-75
2023/07/28 07:26:33;;;;;;;7.77;4.80;;;19.30;43.60;;;;;;4998263;28;20454;-75
2023/07/28 07:28:58;;;;;;;4.03;3.53;;;19.40;45.90;;;;;;4997388;28;20179;-79
2023/07/28 07:31:24;;;;;;;5.60;3.77;;;;;;;;;;4997292;28;20700;-77
2023/07/28 07:33:50;;;;;;;4.47;3.77;;;19.40;36.30;;;;;;4996799;28;20180;-75
2023/07/28 07:36:17;;;;;;;5.47;4.00;;;19.50;34.80;;;;;;4996861;28;20202;-76
2023/07/28 07:38:45;;;;;;;7.87;4.60;;;19.40;34.30;;;;;;4996316;28;20278;-77
2023/07/28 07:41:12;;;;;;;7.20;4.40;;;;;;;;;;4995613;28;20613;-76
2023/07/28 07:43:38;;;;;;;7.63;4.40;;;19.40;31.00;;;;;;4996870;28;20430;-73
2023/07/28 07:46:04;;;;;;;5.10;3.97;;;19.40;33.00;;;;;;4996384;28;20484;-74
2023/07/28 07:48:30;;;;;;;6.50;4.20;;;19.40;35.90;;;;;;4994273;28;20525;-76
2023/07/28 07:50:56;;;;;;;6.90;4.00;;;19.40;32.30;;;;;;4993076;28;20260;-75
2023/07/28 07:53:21;;;;;;;6.67;3.93;;;19.50;33.30;;;;;;4993115;28;20690;-76
2023/07/28 07:55:47;;;;;;;5.63;4.53;;;19.50;29.00;;;;;;4991017;28;20186;-75
2023/07/28 07:58:13;;;;;;;7.33;3.33;;;19.50;34.10;;;;;;4990441;28;20218;-73
2023/07/28 08:00:38;;;;;;;4.77;3.87;;;19.50;27.50;;;;;;4990832;28;20473;-72
2023/07/28 08:03:05;;;;;;;8.47;4.07;;;19.40;30.00;;;;;;4988101;28;20183;-78
2023/07/28 08:05:30;;;;;;;5.93;4.57;;;19.40;30.60;;;;;;4989957;28;20233;-73
2023/07/28 08:07:56;;;;;;;10.13;3.80;;;19.40;34.80;;;;;;4986420;28;21001;-72
2023/07/28 08:10:22;;;;;;;7.87;4.17;;;19.40;27.50;;;;;;4987924;28;20179;-77
2023/07/28 08:12:48;;;;;;;6.17;4.00;;;19.30;24.00;;;;;;4991004;28;20270;-74
2023/07/28 08:15:13;;;;;;;4.50;3.63;;;19.40;25.50;;;;;;4996130;28;20175;-73
2023/07/28 08:17:39;;;;;;;6.03;3.87;;;19.40;20.30;;;;;;4990438;28;20635;-73
2023/07/28 08:20:09;;;;;;;4.60;3.60;;;19.60;25.80;;;;;;4990943;28;20298;-73
2023/07/28 08:22:35;;;;;;;5.13;3.83;;;19.80;18.30;;;;;;4989400;28;20250;-74
2023/07/28 08:25:00;;;;;;;6.07;4.30;;;20.10;17.80;;;;;;4991095;28;20525;-72
2023/07/28 08:27:26;;;;;;;7.23;4.10;;;20.50;16.20;;;;;;4991074;28;20449;-73
2023/07/28 08:29:51;;;;;;;7.93;3.60;;;20.90;5.70;;;;;;4990512;28;20278;-73
2023/07/28 08:32:17;;;;;;;5.97;3.70;;;21.20;1.00;;;;;;4987792;28;20184;-79
2023/07/28 08:34:43;;;;;;;4.70;3.37;;;21.30;1.00;;;;;;4985761;28;20183;-74
2023/07/28 08:37:08;;;;;;;6.43;3.47;;;21.20;1.00;;;;;;4990424;28;20195;-74
2023/07/28 08:39:34;;;;;;;5.63;3.73;;;21.00;1.00;;;;;;4990419;28;20187;-74
2023/07/28 08:42:01;;;;;;;6.23;3.17;;;21.40;1.00;;;;;;4988183;28;20207;-73
2023/07/28 08:44:30;;;;;;;6.53;3.40;;;21.50;1.00;;;;;;4989799;28;20175;-73
2023/07/28 08:46:56;;;;;;;5.20;3.90;;;21.70;1.00;;;;;;4987900;28;20450;-73
2023/07/28 08:49:21;;;;;;;5.33;3.80;;;21.70;1.00;;;;;;4990666;28;20433;-75
2023/07/28 08:51:52;;;;;;;6.00;3.73;;;21.80;1.00;;;;;;4989398;28;20179;-72
2023/07/28 08:54:18;;;;;;;4.93;3.10;;;21.80;1.00;;;;;;4988656;28;20206;-76
2023/07/28 08:56:44;;;;;;;6.20;3.40;;;21.50;1.00;;;;;;4989411;28;20493;-72
2023/07/28 08:59:09;;;;;;;5.00;3.67;;;21.40;1.00;;;;;;4989350;28;20183;-72
2023/07/28 09:01:41;;;;;;;4.43;3.50;;;21.30;1.00;;;;;;4985350;28;20466;-73
2023/07/28 09:04:11;;;;;;;5.07;3.60;;;21.40;1.00;;;;;;4988236;28;20250;-72
2023/07/28 09:06:37;;;;;;;5.40;3.33;;;21.60;1.00;;;;;;4986897;28;20548;-73
2023/07/28 09:09:07;;;;;;;6.27;3.93;;;21.80;1.00;;;;;;4988899;28;20929;-73
2023/07/28 09:11:32;;;;;;;6.10;3.53;;;22.30;1.00;;;;;;4989763;28;20301;-73
2023/07/28 09:14:00;;;;;;;4.60;3.20;;;22.50;1.00;;;;;;4987568;28;20726;-73
2023/07/28 09:16:26;;;;;;;4.23;3.03;;;23.00;1.00;;;;;;4987901;28;20203;-74
2023/07/28 09:19:07;;;;;;;4.63;3.63;;;23.50;1.00;;;;;;4987378;28;20449;-74
2023/07/28 09:21:33;;;;;;;4.03;2.83;;;23.40;1.00;;;;;;4984962;28;21058;-73
2023/07/28 09:24:03;;;;;;;7.20;2.70;;;23.30;1.00;;;;;;4989913;28;20505;-73
2023/07/28 09:26:41;;;;;;;7.83;2.80;;;22.90;1.00;;;;;;4988386;28;20244;-76
2023/07/28 09:29:14;;;;;;;4.30;2.27;;;23.10;1.00;;;;;;4988113;28;20425;-74
2023/07/28 09:31:40;;;;;;;3.60;2.40;;;24.70;1.00;;;;;;4985025;28;20773;-75
2023/07/28 09:34:10;;;;;;;3.60;2.50;;;26.40;1.00;;;;;;4983927;28;20442;-76
2023/07/28 09:36:36;;;;;;;3.47;2.30;;;28.20;1.00;;;;;;4988455;28;20194;-76
2023/07/28 09:39:03;;;;;;;7.50;2.40;;;27.80;1.00;;;;;;4986684;28;20445;-74
2023/07/28 09:41:34;;;;;;;3.83;2.50;;;28.30;1.00;;;;;;4988876;28;20244;-76
2023/07/28 09:43:59;;;;;;;3.10;2.10;;;28.00;1.00;;;;;;4983558;28;20202;-75
2023/07/28 09:46:28;;;;;;;3.90;2.37;;;27.30;1.00;;;;;;4988479;28;20233;-78
2023/07/28 09:48:58;;;;;;;3.70;2.30;;;27.40;1.00;;;;;;4985274;28;20175;-77
2023/07/28 09:51:29;;;;;;;3.80;2.50;;;27.00;1.00;;;;;;4988587;28;20585;-76
2023/07/28 09:54:05;;;;;;;4.00;2.50;;;26.50;1.00;;;;;;4988293;28;20441;-75
2023/07/28 09:56:32;;;;;;;2.77;1.90;;;26.00;1.00;;;;;;4986965;28;20460;-74
2023/07/28 09:58:59;;;;;;;3.00;2.03;;;25.40;1.00;;;;;;4987418;28;20931;-77
2023/07/28 10:01:25;;;;;;;3.97;2.30;;;25.20;1.00;;;;;;4985950;28;21018;-74
2023/07/28 10:03:51;;;;;;;5.10;2.50;;;25.00;1.00;;;;;;4989073;28;20417;-79
2023/07/28 10:06:19;;;;;;;4.33;2.57;;;25.20;1.00;;;;;;4984923;28;20454;-78
2023/07/28 10:08:45;;;;;;;3.70;2.33;;;25.50;1.00;;;;;;4994787;28;20773;-76
2023/07/28 10:11:16;;;;;;;3.23;2.33;;;26.80;1.00;;;;;;4990284;28;20429;-74
2023/07/28 10:13:44;;;;;;;3.60;2.40;;;27.90;1.00;;;;;;4989018;28;20437;-74
2023/07/28 10:16:10;;;;;;;5.63;2.80;;;28.50;1.00;;;;;;4989830;28;20620;-74
2023/07/28 10:18:36;;;;;;;4.27;2.50;;;28.70;1.00;;;;;;4989190;28;20458;-75
2023/07/28 10:21:15;;;;;;;4.23;2.67;;;30.20;1.00;;;;;;4989735;28;20280;-76
2023/07/28 10:23:41;;;;;;;6.17;2.60;;;30.80;1.00;;;;;;4985718;28;20182;-73
2023/07/28 10:26:07;;;;;;;3.85;2.55;;;31.10;1.00;;;;;;4988650;28;20189;-72
2023/07/28 10:28:40;;;;;;;5.75;2.50;;;31.20;1.00;;;;;;4989933;28;20244;-74
2023/07/28 10:31:08;;;;;;;3.80;2.53;;;30.20;1.00;;;;;;4986338;28;20179;-76
2023/07/28 10:33:44;;;;;;;3.70;2.80;;;29.00;1.00;;;;;;4989072;28;20179;-75
2023/07/28 10:36:17;;;;;;;4.17;2.80;;;27.10;1.00;;;;;;4982701;28;20321;-76
2023/07/28 10:38:43;;;;;;;3.60;2.53;;;27.10;1.00;;;;;;4984899;28;20182;-73
2023/07/28 10:41:18;;;;;;;3.97;3.20;;;26.00;1.00;;;;;;4988240;28;20493;-73
2023/07/28 10:43:45;;;;;;;3.70;3.00;;;25.30;1.00;;;;;;4986758;28;20440;-73
2023/07/28 10:46:15;;;;;;;5.90;3.17;;;24.80;1.00;;;;;;4986910;28;20442;-73
2023/07/28 10:48:46;;;;;;;3.90;2.93;;;24.80;1.00;;;;;;4979486;28;20782;-76
2023/07/28 10:51:29;;;;;;;5.07;3.60;;;24.80;1.00;;;;;;4988132;28;20842;-74
2023/07/28 10:53:57;;;;;;;5.40;3.33;;;25.00;1.00;;;;;;4984273;28;20439;-74
2023/07/28 10:56:24;;;;;;;5.43;3.30;;;25.10;1.00;;;;;;4989735;28;20461;-75
2023/07/28 10:58:59;;;;;;;14.10;10.57;;;25.20;1.00;;;;;;4995695;28;21124;-75
2023/07/28 11:01:35;;;;;;;10.43;7.10;;;25.60;1.00;;;;;;4988842;28;21988;-74
2023/07/28 11:04:26;;;;;;;11.50;8.60;;;25.80;1.00;;;;;;4982953;28;20519;-73
2023/07/28 11:06:52;;;;;;;11.83;7.50;;;25.20;1.00;;;;;;4983393;28;21037;-74
2023/07/28 11:09:21;;;;;;;4.07;3.10;;;24.80;1.00;;;;;;4990745;28;20442;-74
2023/07/28 11:11:47;;;;;;;9.07;6.60;;;24.70;1.00;;;;;;4987568;28;20728;-74
2023/07/28 11:14:15;;;;;;;7.97;5.83;;;24.60;1.00;;;;;;4987860;28;20532;-75
2023/07/28 11:16:41;;;;;;;4.50;2.87;;;24.40;1.00;;;;;;4991383;28;20632;-72
2023/07/28 11:19:10;;;;;;;5.53;3.80;;;24.20;1.00;;;;;;4991313;28;20516;-75
2023/07/28 11:21:40;;;;;;;5.97;3.43;;;24.10;1.00;;;;;;4997224;28;20213;-73
2023/07/28 11:24:10;;;;;;;4.37;2.87;;;23.80;1.00;;;;;;4994550;28;21182;-73
2023/07/28 11:26:38;;;;;;;4.70;3.20;;;23.70;1.00;;;;;;4992356;28;20425;-75
2023/07/28 11:29:04;;;;;;;6.23;3.07;;;23.70;1.00;;;;;;4990928;28;20464;-73
2023/07/28 11:31:30;;;;;;;6.10;3.13;;;23.60;1.00;;;;;;4992723;28;20426;-74
2023/07/28 11:33:55;;;;;;;6.17;3.23;;;23.50;1.00;;;;;;4993111;28;20406;-74
2023/07/28 11:36:24;;;;;;;3.80;3.10;;;23.40;1.00;;;;;;4994517;28;20205;-73
2023/07/28 11:38:51;;;;;;;4.13;2.80;;;23.40;1.00;;;;;;4992736;28;20589;-74
2023/07/28 11:41:18;;;;;;;6.20;2.83;;;23.70;1.00;;;;;;4992224;28;20804;-76
2023/07/28 11:43:48;;;;;;;4.33;2.87;;;24.10;1.00;;;;;;4992126;28;20421;-74
2023/07/28 11:46:41;;;;;;;4.23;2.70;;;24.90;1.00;;;;;;4991391;28;20425;-74
2023/07/28 11:49:16;;;;;;;4.00;2.87;;;24.90;1.00;;;;;;4990778;28;20430;-72
2023/07/28 11:51:43;;;;;;;5.33;2.67;;;24.80;1.00;;;;;;4986154;28;20428;-75
2023/07/28 11:54:14;;;;;;;4.13;2.90;;;24.70;1.00;;;;;;4990830;28;20850;-74
2023/07/28 11:56:46;;;;;;;3.73;2.77;;;24.90;1.00;;;;;;4985942;28;20955;-74
2023/07/28 11:59:14;;;;;;;3.10;2.30;;;25.10;1.00;;;;;;4992160;28;20450;-76
2023/07/28 12:01:54;;;;;;;4.77;2.77;;;24.80;1.00;;;;;;4992042;28;20458;-76
2023/07/28 12:04:24;;;;;;;4.27;2.90;;;24.30;1.00;;;;;;4991255;28;20494;-72
2023/07/28 12:07:13;;;;;;;4.20;2.50;;;24.20;1.00;;;;;;4989578;28;20453;-72
2023/07/28 12:09:48;;;;;;;4.40;2.60;;;24.20;1.00;;;;;;4987616;28;20445;-75
2023/07/28 12:12:15;;;;;;;7.10;2.67;;;24.20;1.00;;;;;;4991782;28;20927;-72
2023/07/28 12:14:41;;;;;;;4.60;2.87;;;23.90;1.00;;;;;;4997069;28;20935;-73
2023/07/28 12:17:23;;;;;;;4.23;2.83;;;23.60;1.00;;;;;;4991660;28;20488;-74
2023/07/28 12:20:14;;;;;;;3.40;2.27;;;23.30;1.00;;;;;;4983926;28;20683;-74
2023/07/28 12:22:44;;;;;;;3.97;2.77;;;22.70;1.00;;;;;;4993693;28;20514;-73
2023/07/28 12:25:10;;;;;;;3.87;2.77;;;22.20;1.00;;;;;;4998407;28;20942;-74
2023/07/28 12:27:36;;;;;;;5.50;2.63;;;22.00;1.00;;;;;;4990403;28;20449;-73
2023/07/28 12:30:03;;;;;;;4.37;2.77;;;22.00;1.00;;;;;;4989503;28;20430;-73
2023/07/28 12:32:29;;;;;;;4.10;2.70;;;21.90;1.00;;;;;;4989181;28;20214;-73
2023/07/28 12:34:54;;;;;;;3.60;2.70;;;22.00;1.00;;;;;;4989914;28;20953;-73
2023/07/28 12:37:20;;;;;;;4.57;2.50;;;22.10;1.00;;;;;;4988901;28;20292;-74
2023/07/28 12:39:46;;;;;;;4.90;2.70;;;22.10;1.00;;;;;;4989092;28;20179;-72
2023/07/28 12:42:12;;;;;;;3.70;2.73;;;22.10;1.00;;;;;;4988113;28;20865;-74
2023/07/28 12:44:38;;;;;;;5.47;2.50;;;21.90;1.00;;;;;;4987125;28;20614;-74
2023/07/28 12:47:04;;;;;;;7.10;2.70;;;21.90;1.00;;;;;;4989440;28;20227;-75
2023/07/28 12:49:30;;;;;;;4.37;3.07;;;21.70;1.00;;;;;;4989552;28;20920;-73